PGUM/GUM METAR and TAF weather

Enter ICAO airport designator
Station Type Date Time Source
PGUM METAR 2021/09/23 17:15 UTC NOAA

PGUM 231715Z 13010KT 10SM FEW011 SCT044 26/25 A2974 RMK AO2 RAE01 P0000 T02610250 $


Station Type Date Time Source
PGUM Decoded METAR 2021/09/23 17:15 UTC NOAA

Agana, Guam International Airport, GU, United States (PGUM) 13-29N 144-48E
Sep 23, 2021 - 01:15 PM EDT / 2021.09.23 1715 UTC
Wind: from the SE (130 degrees) at 12 MPH (10 KT):0
Visibility: 10 mile(s):0
Sky conditions: partly cloudy
Precipitation last hour: A trace
Temperature: 79.0 F (26.1 C)
Dew Point: 77.0 F (25.0 C)
Relative Humidity: 93%
Pressure (altimeter): 29.74 in. Hg (1007 hPa)
ob: PGUM 231715Z 13010KT 10SM FEW011 SCT044 26/25 A2974 RMK AO2 RAE01 P0000 T02610250
cycle: 17

Station Type Date Time Source
PGUM TAF 2021/09/23 13:57 UTC NOAA

TAF PGUM 231242Z 2313/2418 16015KT 6SM -RA SCT010 BKN030 OVC100
TEMPO 2313/2317 16015G25KT 2SM +SHRA SCT010 BKN020 OVC060
FM231800 18015KT 6SM -RA SCT014 BKN080 OVC100
TEMPO 2318/2321 18015G25KT 3SM SHRA SCT012 BKN025
FM232100 18015KT P6SM VCSH SCT015 BKN130

Example: see airport list